Time;durP1;ratioP1;P1;durP2;ratioP2;P2;SDS_P1;SDS_P2;PMS_P1;PMS_P2;Temp;Humidity;BMP_temperature;BMP_pressure;BME280_temperature;BME280_humidity;BME280_pressure;Samples;Min_cycle;Max_cycle;Signal;HPM_P1;HPM_P2
2022/04/13 00:01:08;;;;;;;21.00;6.00;;;;;;;4.32;55.28;100715.52;105696;1272;22557;-55
2022/04/13 00:03:39;;;;;;;15.40;5.50;;;;;;;4.29;55.33;100715.77;105835;1273;24423;-56
2022/04/13 00:06:11;;;;;;;20.20;6.00;;;;;;;4.25;55.47;100716.14;105992;1274;26491;-57
2022/04/13 00:08:44;;;;;;;19.20;6.40;;;;;;;4.23;55.45;100716.66;105660;1274;23040;-55
2022/04/13 00:11:17;;;;;;;19.50;6.40;;;;;;;4.21;55.48;100716.86;105931;1273;24314;-57
2022/04/13 00:13:49;;;;;;;21.90;7.30;;;;;;;4.18;55.53;100718.88;105946;1273;24265;-58
2022/04/13 00:16:20;;;;;;;23.50;7.60;;;;;;;4.17;55.53;100717.00;105863;1273;22538;-57
2022/04/13 00:18:52;;;;;;;26.20;8.10;;;;;;;4.14;55.76;100714.85;105785;1273;22555;-55
2022/04/13 00:21:23;;;;;;;19.10;6.90;;;;;;;4.13;55.73;100714.02;106107;1271;22652;-57
2022/04/13 00:23:56;;;;;;;22.80;7.60;;;;;;;4.09;55.96;100710.77;106126;1271;24451;-57
2022/04/13 00:26:28;;;;;;;21.50;7.10;;;;;;;4.06;55.91;100711.77;105966;1273;22701;-57
2022/04/13 00:28:59;;;;;;;24.30;6.60;;;;;;;4.04;55.96;100710.92;106074;1273;23190;-56
2022/04/13 00:31:30;;;;;;;21.20;7.50;;;;;;;4.01;56.04;100707.82;105923;1273;22703;-59
2022/04/13 00:34:02;;;;;;;21.50;7.20;;;;;;;3.98;56.04;100712.79;105727;1274;23457;-57
2022/04/13 00:36:34;;;;;;;23.10;8.10;;;;;;;3.96;56.16;100717.80;106044;1271;24378;-57
2022/04/13 00:39:05;;;;;;;21.60;7.10;;;;;;;3.95;56.23;100712.99;105774;1274;23030;-58
2022/04/13 00:41:37;;;;;;;23.00;7.10;;;;;;;3.92;56.19;100709.80;105844;1273;23533;-58
2022/04/13 00:44:10;;;;;;;21.10;5.80;;;;;;;3.90;56.42;100708.98;105786;1273;25828;-57
2022/04/13 00:46:42;;;;;;;20.90;6.30;;;;;;;3.88;56.45;100708.25;105624;1273;25386;-58
2022/04/13 00:49:14;;;;;;;22.10;7.00;;;;;;;3.86;56.59;100707.48;105805;1273;22628;-56
2022/04/13 00:51:45;;;;;;;26.40;7.40;;;;;;;3.83;56.68;100709.90;105661;1273;25433;-58
2022/04/13 00:54:19;;;;;;;23.80;7.40;;;;;;;3.80;56.70;100713.65;105837;1273;25308;-56
2022/04/13 00:56:54;;;;;;;20.30;7.10;;;;;;;3.79;56.95;100711.01;105664;1274;22749;-57
2022/04/13 00:59:27;;;;;;;21.80;6.70;;;;;;;3.78;56.97;100716.16;105645;1272;25391;-58
2022/04/13 01:01:59;;;;;;;21.00;7.80;;;;;;;3.76;57.13;100718.55;105597;1273;25187;-57
2022/04/13 01:04:31;;;;;;;23.70;8.10;;;;;;;3.73;57.01;100715.69;105687;1273;22552;-59
2022/04/13 01:07:05;;;;;;;22.70;7.90;;;;;;;3.72;57.06;100717.45;105797;1273;22990;-57
2022/04/13 01:09:37;;;;;;;24.50;8.90;;;;;;;3.71;57.10;100723.38;105820;1273;22548;-57
2022/04/13 01:12:10;;;;;;;20.90;7.90;;;;;;;3.69;57.15;100724.28;105884;1272;22592;-54
2022/04/13 01:14:41;;;;;;;22.70;7.80;;;;;;;3.67;57.24;100730.39;105672;1270;22653;-57
2022/04/13 01:17:13;;;;;;;20.40;7.40;;;;;;;3.65;57.34;100727.50;105629;1271;22652;-57
2022/04/13 01:19:46;;;;;;;21.70;8.10;;;;;;;3.62;57.43;100722.41;106009;1274;26232;-57
2022/04/13 01:22:20;;;;;;;24.40;8.80;;;;;;;3.59;57.57;100719.48;105980;1274;25826;-55
2022/04/13 01:24:52;;;;;;;19.60;7.80;;;;;;;3.56;57.67;100718.64;105920;1273;22554;-58
2022/04/13 01:27:24;;;;;;;23.70;7.90;;;;;;;3.54;57.71;100718.78;105588;1274;25311;-57
2022/04/13 01:29:55;;;;;;;22.60;8.10;;;;;;;3.51;57.80;100719.05;105724;1273;25496;-58
2022/04/13 01:32:27;;;;;;;19.80;7.20;;;;;;;3.49;57.81;100718.06;105751;1272;22616;-57
2022/04/13 01:34:58;;;;;;;22.30;7.70;;;;;;;3.47;57.94;100717.71;105707;1274;22535;-57
2022/04/13 01:37:29;;;;;;;24.40;8.70;;;;;;;3.44;57.91;100717.43;105615;1274;22556;-55
2022/04/13 01:40:01;;;;;;;24.50;8.50;;;;;;;3.41;57.97;100720.00;105737;1274;24255;-57
2022/04/13 01:42:34;;;;;;;22.50;7.50;;;;;;;3.38;58.06;100718.40;106001;1273;22551;-57
2022/04/13 01:45:10;;;;;;;24.00;7.70;;;;;;;3.34;57.93;100717.22;105959;1273;22551;-57
2022/04/13 01:47:41;;;;;;;25.90;9.20;;;;;;;3.32;58.20;100716.38;105666;1273;22544;-57
2022/04/13 01:50:13;;;;;;;24.60;8.80;;;;;;;3.30;58.27;100716.55;105917;1273;22617;-54
2022/04/13 01:52:44;;;;;;;25.60;8.20;;;;;;;3.29;58.21;100715.95;105794;1273;22556;-56
2022/04/13 01:55:17;;;;;;;24.70;9.20;;;;;;;3.27;58.28;100716.60;105829;1273;22619;-57
2022/04/13 01:57:48;;;;;;;26.80;9.80;;;;;;;3.26;58.49;100720.88;105741;1274;25372;-56
2022/04/13 02:00:20;;;;;;;27.40;10.70;;;;;;;3.25;58.53;100724.35;105653;1273;25307;-54
2022/04/13 02:02:52;;;;;;;24.80;9.30;;;;;;;3.24;58.59;100716.17;105729;1273;25528;-57
2022/04/13 02:05:23;;;;;;;31.70;9.70;;;;;;;3.25;58.78;100716.16;105697;1273;24482;-55
2022/04/13 02:07:55;;;;;;;29.30;10.70;;;;;;;3.24;58.63;100713.19;105637;1274;24301;-57
2022/04/13 02:10:26;;;;;;;25.70;8.80;;;;;;;3.24;58.63;100711.77;105660;1274;22621;-56
2022/04/13 02:12:57;;;;;;;28.10;9.60;;;;;;;3.23;58.56;100708.39;105818;1273;22648;-57
2022/04/13 02:15:29;;;;;;;27.90;10.40;;;;;;;3.23;58.73;100713.13;105646;1274;25606;-55
2022/04/13 02:18:01;;;;;;;26.30;9.20;;;;;;;3.21;58.62;100711.09;105604;1271;22554;-57
2022/04/13 02:20:32;;;;;;;26.00;10.10;;;;;;;3.19;58.66;100711.20;105768;1271;22623;-55
2022/04/13 02:23:04;;;;;;;27.20;10.90;;;;;;;3.17;58.92;100711.96;105916;1274;25549;-59
2022/04/13 02:25:36;;;;;;;29.60;9.80;;;;;;;3.12;58.87;100717.61;105759;1273;24802;-57
2022/04/13 02:28:08;;;;;;;23.30;9.60;;;;;;;3.09;58.90;100716.34;105771;1274;22652;-54
2022/04/13 02:30:39;;;;;;;25.90;9.70;;;;;;;3.06;58.79;100719.05;105937;1274;23173;-56
2022/04/13 02:33:10;;;;;;;27.00;9.70;;;;;;;3.04;58.96;100720.35;105885;1274;22529;-57
2022/04/13 02:35:42;;;;;;;25.60;10.20;;;;;;;3.00;59.02;100720.57;105724;1273;22542;-57
2022/04/13 02:38:13;;;;;;;27.50;10.30;;;;;;;2.97;59.15;100718.71;105873;1271;25455;-57
2022/04/13 02:40:45;;;;;;;29.40;10.10;;;;;;;2.93;59.21;100720.73;105850;1272;22553;-55
2022/04/13 02:43:16;;;;;;;29.10;10.60;;;;;;;2.89;59.20;100719.30;105836;1274;24236;-57
2022/04/13 02:45:48;;;;;;;30.30;9.40;;;;;;;2.85;59.21;100723.52;105977;1273;22550;-57
2022/04/13 02:48:20;;;;;;;27.10;10.40;;;;;;;2.82;59.16;100723.73;106004;1273;22528;-56
2022/04/13 02:50:52;;;;;;;27.50;10.10;;;;;;;2.79;59.21;100721.96;105849;1274;22542;-56
2022/04/13 02:53:26;;;;;;;23.30;8.80;;;;;;;2.76;59.30;100719.17;105924;1271;22550;-57
2022/04/13 02:55:57;;;;;;;25.90;9.40;;;;;;;2.73;59.31;100714.00;105989;1274;25261;-56
2022/04/13 02:58:29;;;;;;;27.80;10.90;;;;;;;2.69;59.34;100713.98;105856;1274;22556;-56
2022/04/13 03:01:03;;;;;;;28.60;10.10;;;;;;;2.66;59.41;100720.02;105689;1274;22470;-57
2022/04/13 03:03:34;;;;;;;28.70;10.60;;;;;;;2.63;59.51;100723.66;105903;1274;22574;-58
2022/04/13 03:06:06;;;;;;;22.50;8.20;;;;;;;2.61;59.60;100727.55;106019;1271;22811;-56
2022/04/13 03:08:38;;;;;;;31.70;12.00;;;;;;;2.60;59.63;100726.31;106018;1273;22529;-57
2022/04/13 03:11:10;;;;;;;27.80;10.70;;;;;;;2.58;59.55;100723.34;105892;1274;26262;-55
2022/04/13 03:13:42;;;;;;;31.00;12.00;;;;;;;2.57;59.63;100724.38;105947;1273;24259;-57
2022/04/13 03:16:13;;;;;;;35.20;13.10;;;;;;;2.55;59.81;100726.38;105876;1274;26278;-54
2022/04/13 03:18:45;;;;;;;36.10;15.10;;;;;;;2.54;59.82;100728.20;106013;1272;22708;-54
2022/04/13 03:21:17;;;;;;;34.50;12.40;;;;;;;2.53;59.98;100725.38;105640;1272;22611;-56
2022/04/13 03:23:49;;;;;;;36.10;14.70;;;;;;;2.52;59.90;100726.02;105921;1273;22649;-53
2022/04/13 03:26:20;;;;;;;34.90;16.00;;;;;;;2.50;59.97;100726.83;105715;1274;22540;-54
2022/04/13 03:28:53;;;;;;;38.80;13.10;;;;;;;2.46;60.10;100727.19;105717;1273;25339;-55
2022/04/13 03:31:24;;;;;;;33.60;14.30;;;;;;;2.41;60.04;100732.52;105772;1274;24503;-54
2022/04/13 03:33:56;;;;;;;35.10;14.10;;;;;;;2.37;60.20;100740.45;105825;1274;22535;-54
2022/04/13 03:36:27;;;;;;;32.30;12.90;;;;;;;2.33;60.23;100740.73;105901;1273;25251;-56
2022/04/13 03:38:58;;;;;;;34.20;12.70;;;;;;;2.30;60.32;100746.67;105765;1273;25513;-56
2022/04/13 03:41:30;;;;;;;34.80;13.70;;;;;;;2.27;60.28;100743.79;105709;1273;22534;-57
2022/04/13 03:44:01;;;;;;;28.90;13.00;;;;;;;2.24;60.53;100744.30;105637;1270;23071;-57
2022/04/13 03:46:33;;;;;;;28.20;11.40;;;;;;;2.21;60.57;100747.95;105710;1274;22540;-59
2022/04/13 03:49:06;;;;;;;35.40;14.80;;;;;;;2.18;60.56;100744.27;105910;1274;22538;-55
2022/04/13 03:51:37;;;;;;;35.20;14.90;;;;;;;2.16;60.69;100747.53;105739;1273;25428;-54
2022/04/13 03:54:09;;;;;;;34.20;14.20;;;;;;;2.12;60.65;100750.64;105655;1272;22546;-56
2022/04/13 03:56:41;;;;;;;31.40;13.50;;;;;;;2.10;60.69;100750.83;105657;1274;22550;-53
2022/04/13 03:59:13;;;;;;;37.30;15.00;;;;;;;2.08;60.77;100750.68;105561;1273;22525;-56
2022/04/13 04:01:44;;;;;;;39.00;15.30;;;;;;;2.05;61.07;100749.37;105652;1274;22606;-55
2022/04/13 04:04:15;;;;;;;36.50;15.00;;;;;;;2.02;60.97;100743.74;105550;1271;22618;-54
2022/04/13 04:06:47;;;;;;;40.20;15.60;;;;;;;2.00;61.06;100747.30;105571;1274;22719;-54
2022/04/13 04:09:20;;;;;;;42.20;16.10;;;;;;;1.99;61.12;100748.10;105675;1273;25433;-54
2022/04/13 04:11:51;;;;;;;39.20;15.90;;;;;;;1.98;61.46;100748.98;105919;1272;22567;-56
2022/04/13 04:14:23;;;;;;;40.50;15.90;;;;;;;1.97;61.59;100753.08;105723;1273;22537;-55
2022/04/13 04:16:55;;;;;;;45.30;21.20;;;;;;;1.97;61.69;100755.52;105653;1274;25489;-57
2022/04/13 04:19:28;;;;;;;39.90;18.30;;;;;;;1.97;61.78;100759.13;105698;1273;25504;-55
2022/04/13 04:21:59;;;;;;;45.40;19.60;;;;;;;1.95;61.86;100762.06;105689;1274;22558;-56
2022/04/13 04:24:31;;;;;;;48.10;21.40;;;;;;;1.96;61.73;100762.84;105740;1273;23043;-58
2022/04/13 04:27:02;;;;;;;46.10;23.20;;;;;;;1.97;61.64;100764.88;105602;1271;22532;-58
2022/04/13 04:29:35;;;;;;;57.90;23.70;;;;;;;1.98;61.81;100760.15;105552;1274;24327;-57
2022/04/13 04:32:08;;;;;;;51.80;25.30;;;;;;;1.99;61.85;100762.09;105641;1274;25533;-54
2022/04/13 04:34:39;;;;;;;57.00;26.10;;;;;;;2.01;61.98;100758.77;105417;1274;22557;-55
2022/04/13 04:37:11;;;;;;;50.30;26.30;;;;;;;2.02;61.98;100763.80;105528;1273;23328;-57
2022/04/13 04:39:42;;;;;;;52.30;26.40;;;;;;;2.03;62.05;100765.52;105640;1272;22534;-57
2022/04/13 04:42:14;;;;;;;89.50;35.80;;;;;;;2.04;62.09;100767.80;106532;1271;25287;-57
2022/04/13 04:44:46;;;;;;;104.40;40.60;;;;;;;2.04;62.31;100767.33;107209;1272;22580;-56
2022/04/13 04:47:17;;;;;;;112.90;48.00;;;;;;;2.06;62.29;100765.97;105606;1274;22582;-58
2022/04/13 04:49:48;;;;;;;114.80;44.60;;;;;;;2.08;62.28;100763.35;105893;1273;25359;-54
2022/04/13 04:52:20;;;;;;;130.80;51.60;;;;;;;2.11;62.42;100766.31;105737;1274;22556;-56
2022/04/13 04:54:52;;;;;;;135.00;47.60;;;;;;;2.14;62.57;100765.34;105588;1274;22590;-57
2022/04/13 04:57:23;;;;;;;100.00;36.50;;;;;;;2.16;62.75;100765.14;105566;1274;25264;-56
2022/04/13 04:59:55;;;;;;;87.40;31.20;;;;;;;2.20;63.05;100763.77;105595;1274;24077;-56
2022/04/13 05:02:26;;;;;;;70.00;27.00;;;;;;;2.25;63.20;100769.08;105625;1274;25369;-58
2022/04/13 05:04:57;;;;;;;62.90;22.70;;;;;;;2.30;63.35;100769.80;105810;1274;24290;-56
2022/04/13 05:07:29;;;;;;;54.00;21.10;;;;;;;2.37;63.28;100765.31;105660;1274;25357;-58
2022/04/13 05:10:00;;;;;;;59.70;22.80;;;;;;;2.43;63.40;100772.80;105771;1273;25249;-57
2022/04/13 05:12:37;;;;;;;66.50;26.10;;;;;;;2.51;63.53;100779.58;106294;1274;23097;-58
2022/04/13 05:15:11;;;;;;;83.50;32.80;;;;;;;2.58;63.74;100780.74;105820;1274;24275;-58
2022/04/13 05:17:43;;;;;;;86.40;35.70;;;;;;;2.69;63.83;100776.69;105993;1273;25444;-54
2022/04/13 05:20:15;;;;;;;79.50;32.30;;;;;;;2.79;63.84;100781.60;105616;1273;25402;-54
2022/04/13 05:22:46;;;;;;;82.80;34.80;;;;;;;2.88;63.98;100781.71;105580;1274;25346;-57
2022/04/13 05:25:18;;;;;;;94.90;38.00;;;;;;;2.98;64.16;100784.50;105626;1274;25561;-57
2022/04/13 05:27:50;;;;;;;83.60;36.80;;;;;;;3.10;64.10;100782.75;105921;1274;22683;-59
2022/04/13 05:30:21;;;;;;;75.40;32.00;;;;;;;3.22;64.19;100785.73;105843;1274;22706;-54
2022/04/13 05:32:57;;;;;;;68.70;29.50;;;;;;;3.34;64.31;100784.54;105939;1273;24335;-54
2022/04/13 05:35:30;;;;;;;58.40;27.70;;;;;;;3.47;64.33;100779.23;105525;1273;22571;-55
2022/04/13 05:38:05;;;;;;;51.90;21.20;;;;;;;3.60;64.44;100780.83;105692;1274;22646;-57
2022/04/13 05:40:36;;;;;;;40.60;19.20;;;;;;;3.73;64.42;100781.95;105569;1273;23301;-55
2022/04/13 05:43:08;;;;;;;38.70;17.20;;;;;;;3.86;64.34;100778.58;105592;1272;25352;-56
2022/04/13 05:45:40;;;;;;;40.70;19.20;;;;;;;3.99;64.21;100779.86;105626;1274;22561;-54
2022/04/13 05:48:14;;;;;;;39.00;17.10;;;;;;;4.13;64.07;100780.88;105525;1274;24234;-55
2022/04/13 05:50:47;;;;;;;38.70;16.80;;;;;;;4.27;63.96;100781.95;105624;1274;22538;-55
2022/04/13 05:53:18;;;;;;;38.60;16.50;;;;;;;4.39;64.04;100782.44;105713;1274;22619;-56
2022/04/13 05:55:55;;;;;;;38.80;16.70;;;;;;;4.51;63.95;100784.33;105535;1274;24412;-55
2022/04/13 05:58:28;;;;;;;37.70;16.40;;;;;;;4.64;63.80;100786.78;105473;1274;22541;-56
2022/04/13 06:01:00;;;;;;;38.70;15.60;;;;;;;4.75;63.73;100782.90;105725;1273;22559;-56
2022/04/13 06:03:33;;;;;;;37.50;17.30;;;;;;;4.86;63.68;100783.23;105746;1271;23057;-56
2022/04/13 06:06:05;;;;;;;37.20;17.00;;;;;;;4.98;63.72;100787.49;105567;1274;25410;-56
2022/04/13 06:08:37;;;;;;;39.20;18.30;;;;;;;5.08;63.62;100790.91;105529;1274;24255;-53
2022/04/13 06:11:08;;;;;;;38.10;16.70;;;;;;;5.18;63.71;100790.75;105623;1274;23867;-56
2022/04/13 06:13:41;;;;;;;34.10;16.20;;;;;;;5.30;63.46;100792.63;105649;1274;24290;-54
2022/04/13 06:16:13;;;;;;;38.00;16.40;;;;;;;5.41;63.50;100793.24;105899;1274;22529;-54
2022/04/13 06:18:44;;;;;;;38.70;16.90;;;;;;;5.51;63.32;100790.79;105780;1271;24338;-56
2022/04/13 06:21:16;;;;;;;47.80;17.90;;;;;;;5.62;63.32;100788.70;107652;1271;26666;-54
2022/04/13 06:23:47;;;;;;;35.50;17.30;;;;;;;5.72;63.13;100787.76;105641;1274;23181;-56
2022/04/13 06:26:19;;;;;;;41.90;17.80;;;;;;;5.82;63.04;100790.06;106022;1274;22543;-60
2022/04/13 06:28:52;;;;;;;42.00;17.10;;;;;;;5.92;62.86;100790.31;105927;1274;22528;-56
2022/04/13 06:31:24;;;;;;;36.30;16.10;;;;;;;6.04;62.96;100796.96;105845;1273;22552;-56
2022/04/13 06:33:56;;;;;;;39.80;16.00;;;;;;;6.15;62.80;100795.73;105753;1274;22628;-55
2022/04/13 06:36:29;;;;;;;38.90;17.30;;;;;;;6.25;62.58;100798.08;105599;1274;22604;-57
2022/04/13 06:39:01;;;;;;;36.50;17.00;;;;;;;6.35;62.41;100797.19;105623;1274;23846;-54
2022/04/13 06:41:33;;;;;;;36.30;16.70;;;;;;;6.45;62.46;100795.56;105684;1274;25263;-54
2022/04/13 06:44:05;;;;;;;39.00;18.00;;;;;;;6.56;62.25;100796.86;105615;1274;24308;-55
2022/04/13 06:46:36;;;;;;;42.80;18.80;;;;;;;6.67;62.07;100796.08;105623;1274;22535;-54
2022/04/13 06:49:09;;;;;;;40.80;15.70;;;;;;;6.77;61.94;100796.48;105772;1274;25375;-56
2022/04/13 06:51:42;;;;;;;39.00;17.40;;;;;;;6.89;61.80;100793.66;105652;1274;22525;-56
2022/04/13 06:54:14;;;;;;;35.00;16.30;;;;;;;7.00;61.62;100799.95;105846;1274;25426;-54
2022/04/13 06:56:48;;;;;;;36.00;16.80;;;;;;;7.08;61.55;100794.47;105648;1274;22550;-56
2022/04/13 06:59:19;;;;;;;37.10;15.80;;;;;;;7.19;61.48;100797.45;105743;1272;22538;-54
2022/04/13 07:01:51;;;;;;;38.30;17.00;;;;;;;7.30;61.21;100801.98;105764;1274;22525;-58
2022/04/13 07:04:23;;;;;;;36.00;14.60;;;;;;;7.42;61.13;100811.48;105586;1274;22694;-55
2022/04/13 07:06:55;;;;;;;35.40;15.90;;;;;;;7.52;60.98;100808.61;105673;1274;22523;-54
2022/04/13 07:09:28;;;;;;;33.40;15.20;;;;;;;7.61;60.71;100811.08;105652;1274;22541;-56
2022/04/13 07:12:00;;;;;;;41.40;16.90;;;;;;;7.72;60.52;100807.89;105736;1274;22519;-54
2022/04/13 07:14:32;;;;;;;40.30;16.10;;;;;;;7.80;60.46;100809.79;105689;1274;22711;-57
2022/04/13 07:17:04;;;;;;;33.30;16.20;;;;;;;7.89;60.57;100813.11;105714;1274;22787;-54
2022/04/13 07:19:35;;;;;;;35.50;15.70;;;;;;;8.00;60.31;100809.98;105702;1274;25388;-56
2022/04/13 07:22:07;;;;;;;33.60;15.00;;;;;;;8.11;59.98;100809.73;105695;1274;24300;-58
2022/04/13 07:24:39;;;;;;;33.30;15.30;;;;;;;8.26;59.82;100812.13;105727;1274;25362;-57
2022/04/13 07:27:10;;;;;;;34.10;14.90;;;;;;;8.39;59.61;100813.21;105673;1274;22680;-56
2022/04/13 07:29:42;;;;;;;32.80;13.90;;;;;;;8.51;59.32;100814.84;105843;1274;25346;-56
2022/04/13 07:32:13;;;;;;;29.80;13.40;;;;;;;8.65;58.79;100819.37;105688;1274;22692;-55
2022/04/13 07:34:46;;;;;;;32.20;14.60;;;;;;;8.74;58.66;100819.33;106632;1262;22550;-55
2022/04/13 07:37:18;;;;;;;29.70;13.00;;;;;;;8.89;58.60;100818.38;106148;1271;22696;-52
2022/04/13 07:39:49;;;;;;;29.20;12.70;;;;;;;9.02;58.34;100823.32;106211;1271;22531;-56
2022/04/13 07:42:24;;;;;;;33.40;13.30;;;;;;;9.16;58.23;100821.15;106168;1271;24017;-55
2022/04/13 07:44:56;;;;;;;28.80;11.00;;;;;;;9.30;57.96;100816.47;106178;1271;22527;-52
2022/04/13 07:47:28;;;;;;;27.60;11.30;;;;;;;9.45;57.82;100817.48;106104;1271;25299;-51
2022/04/13 07:50:01;;;;;;;26.40;10.80;;;;;;;9.60;56.92;100812.80;106096;1271;22558;-52
2022/04/13 07:52:36;;;;;;;27.10;10.40;;;;;;;9.75;56.88;100815.00;106147;1271;24272;-53
2022/04/13 07:55:11;;;;;;;27.40;11.80;;;;;;;9.87;56.77;100816.33;106150;1271;22569;-57
2022/04/13 07:57:42;;;;;;;27.60;11.10;;;;;;;9.95;56.34;100818.00;106148;1271;25972;-56
2022/04/13 08:00:16;;;;;;;24.70;9.30;;;;;;;10.06;56.20;100821.45;106111;1271;24252;-53
2022/04/13 08:02:47;;;;;;;29.50;12.20;;;;;;;10.24;55.92;100818.23;106183;1271;25423;-52
2022/04/13 08:05:19;;;;;;;31.10;11.00;;;;;;;10.42;55.82;100822.33;106103;1271;23161;-53
2022/04/13 08:07:50;;;;;;;24.40;9.60;;;;;;;10.56;55.61;100820.28;106242;1271;25393;-56
2022/04/13 08:10:22;;;;;;;25.70;9.80;;;;;;;10.64;55.02;100819.82;106182;1271;22559;-53
2022/04/13 08:12:54;;;;;;;25.20;8.90;;;;;;;10.73;54.68;100815.16;106127;1271;22613;-54
2022/04/13 08:15:26;;;;;;;25.10;9.90;;;;;;;10.85;54.26;100817.27;106061;1272;24419;-51
2022/04/13 08:17:58;;;;;;;24.90;9.50;;;;;;;10.96;54.10;100815.17;106263;1271;22535;-54
2022/04/13 08:20:31;;;;;;;22.50;9.70;;;;;;;11.05;54.13;100814.84;106170;1271;26650;-54
2022/04/13 08:23:03;;;;;;;26.40;9.80;;;;;;;11.17;53.97;100812.37;106268;1271;22528;-54
2022/04/13 08:25:35;;;;;;;25.20;8.30;;;;;;;11.26;53.63;100811.13;106299;1271;25344;-52
2022/04/13 08:28:07;;;;;;;23.70;10.00;;;;;;;11.38;53.23;100807.67;106166;1271;22525;-53
2022/04/13 08:30:40;;;;;;;23.90;9.10;;;;;;;11.49;52.92;100802.09;106124;1271;22523;-53
2022/04/13 08:33:12;;;;;;;25.10;8.80;;;;;;;11.59;52.74;100802.33;106294;1271;22552;-55
2022/04/13 08:35:44;;;;;;;24.90;9.10;;;;;;;11.67;52.50;100803.40;105867;1274;22623;-55
2022/04/13 08:38:19;;;;;;;25.50;8.90;;;;;;;11.82;52.16;100796.70;105962;1275;23196;-55
2022/04/13 08:40:57;;;;;;;23.90;8.20;;;;;;;11.98;52.04;100793.29;106044;1273;22545;-53
2022/04/13 08:43:41;;;;;;;24.40;8.90;;;;;;;12.08;51.70;100790.67;106031;1274;26475;-54
2022/04/13 08:46:16;;;;;;;25.80;8.60;;;;;;;12.17;51.57;100792.39;106118;1272;25486;-54
2022/04/13 08:48:52;;;;;;;24.90;8.20;;;;;;;12.28;51.45;100788.18;106109;1274;22548;-54
2022/04/13 08:51:26;;;;;;;23.10;7.50;;;;;;;12.43;51.15;100788.27;105901;1274;22733;-53
2022/04/13 08:54:06;;;;;;;21.40;7.30;;;;;;;12.59;50.72;100785.86;105886;1273;24382;-55
2022/04/13 08:56:40;;;;;;;24.00;7.80;;;;;;;12.74;50.28;100786.34;105973;1274;25978;-55
2022/04/13 08:59:23;;;;;;;19.00;6.70;;;;;;;12.82;49.83;100779.26;106167;1274;22574;-54
2022/04/13 09:02:06;;;;;;;16.80;6.70;;;;;;;12.91;49.58;100784.02;105956;1274;22760;-55
2022/04/13 09:04:43;;;;;;;22.90;7.40;;;;;;;12.98;49.33;100780.88;105981;1273;22540;-55
2022/04/13 09:07:19;;;;;;;22.60;7.40;;;;;;;13.11;48.92;100778.49;106016;1274;22562;-55
2022/04/13 09:09:55;;;;;;;19.70;6.60;;;;;;;13.24;48.79;100776.10;105860;1274;22558;-52
2022/04/13 09:12:30;;;;;;;21.70;6.10;;;;;;;13.34;48.57;100775.05;105985;1274;23931;-55
2022/04/13 09:15:05;;;;;;;15.50;4.90;;;;;;;13.43;47.98;100769.90;106044;1274;22570;-54
2022/04/13 09:17:38;;;;;;;19.60;5.80;;;;;;;13.53;47.52;100772.19;106009;1275;22567;-52
2022/04/13 09:20:11;;;;;;;19.10;5.90;;;;;;;13.62;47.65;100774.67;105978;1274;25200;-54
2022/04/13 09:22:44;;;;;;;18.90;6.90;;;;;;;13.67;47.24;100770.62;105942;1274;23209;-53
2022/04/13 09:25:19;;;;;;;18.40;5.70;;;;;;;13.75;47.05;100773.04;105976;1274;25245;-49
2022/04/13 09:27:51;;;;;;;19.00;6.10;;;;;;;13.84;46.98;100774.33;106035;1274;22615;-54
2022/04/13 09:30:23;;;;;;;19.30;6.90;;;;;;;13.93;46.71;100773.63;105982;1274;24217;-51
2022/04/13 09:32:56;;;;;;;19.60;6.40;;;;;;;14.01;46.48;100773.34;106057;1274;22541;-55
2022/04/13 09:35:40;;;;;;;19.80;6.90;;;;;;;14.09;46.14;100774.98;106039;1271;26062;-51
2022/04/13 09:38:13;;;;;;;18.50;6.50;;;;;;;14.15;45.70;100770.58;105898;1271;22544;-51
2022/04/13 09:40:45;;;;;;;21.40;6.60;;;;;;;14.22;45.93;100770.45;105860;1271;26683;-53
2022/04/13 09:43:18;;;;;;;21.00;7.70;;;;;;;14.30;45.86;100770.42;106019;1271;24847;-55
2022/04/13 09:45:57;;;;;;;17.00;6.90;;;;;;;14.44;45.79;100770.60;106133;1271;23142;-52
2022/04/13 09:48:29;;;;;;;22.80;7.30;;;;;;;14.55;45.57;100770.38;106381;1271;22534;-53
2022/04/13 09:51:02;;;;;;;21.80;7.60;;;;;;;14.66;45.56;100773.14;106049;1271;22548;-51
2022/04/13 09:53:42;;;;;;;23.80;8.30;;;;;;;14.73;44.97;100771.58;106180;1271;25371;-55
2022/04/13 09:56:24;;;;;;;19.90;7.10;;;;;;;14.79;44.47;100767.96;105776;1271;22627;-54
2022/04/13 09:58:56;;;;;;;22.00;7.90;;;;;;;14.88;43.84;100765.48;105879;1271;22547;-53
2022/04/13 10:01:29;;;;;;;20.00;7.50;;;;;;;14.98;44.01;100768.73;106165;1271;24214;-56
2022/04/13 10:04:01;;;;;;;22.40;8.20;;;;;;;15.06;43.89;100772.70;105955;1271;25541;-52
2022/04/13 10:06:33;;;;;;;26.50;9.10;;;;;;;15.12;43.59;100767.59;105998;1271;23132;-53
2022/04/13 10:09:09;;;;;;;22.90;8.10;;;;;;;15.16;43.74;100762.04;106043;1271;22697;-53
2022/04/13 10:11:58;;;;;;;22.40;8.40;;;;;;;15.26;43.72;100759.36;105768;1271;22538;-54
2022/04/13 10:14:29;;;;;;;22.00;8.60;;;;;;;15.35;43.51;100753.97;105807;1270;25199;-53
2022/04/13 10:17:12;;;;;;;24.20;8.80;;;;;;;15.40;43.62;100748.58;105918;1270;25358;-54
2022/04/13 10:19:44;;;;;;;26.30;9.20;;;;;;;15.46;43.75;100757.65;106007;1271;22653;-54
2022/04/13 10:22:16;;;;;;;25.90;9.30;;;;;;;15.51;43.57;100757.44;105957;1271;22609;-55
2022/04/13 10:24:49;;;;;;;23.00;9.00;;;;;;;15.54;43.06;100756.59;105790;1271;22557;-53
2022/04/13 10:27:25;;;;;;;22.30;9.30;;;;;;;15.57;42.88;100756.26;105873;1271;23996;-54
2022/04/13 10:30:09;;;;;;;22.50;8.50;;;;;;;15.62;43.14;100758.34;105900;1271;25232;-51
2022/04/13 10:32:40;;;;;;;20.70;8.30;;;;;;;15.67;42.94;100754.79;105766;1271;25211;-54
2022/04/13 10:35:13;;;;;;;20.20;7.70;;;;;;;15.70;42.24;100745.48;105934;1271;22639;-52
2022/04/13 10:37:45;;;;;;;25.10;8.80;;;;;;;15.77;42.44;100745.84;105845;1271;22555;-52
2022/04/13 10:40:16;;;;;;;21.10;8.30;;;;;;;15.84;42.51;100745.52;105666;1271;22634;-52
2022/04/13 10:42:51;;;;;;;19.70;6.90;;;;;;;15.88;41.77;100738.84;105951;1271;22561;-53
2022/04/13 10:45:23;;;;;;;21.80;7.00;;;;;;;15.92;41.85;100738.09;105352;1271;520028;-54
2022/04/13 10:48:00;;;;;;;24.90;8.90;;;;;;;15.95;41.63;100742.66;105770;1271;26501;-55
2022/04/13 10:50:37;;;;;;;26.20;9.70;;;;;;;16.01;41.35;100732.70;105730;1271;22550;-54
2022/04/13 10:53:19;;;;;;;22.10;7.90;;;;;;;16.06;41.71;100732.84;105974;1271;22544;-55
2022/04/13 10:55:58;;;;;;;17.00;5.60;;;;;;;16.18;40.62;100735.51;106141;1271;25327;-54
2022/04/13 10:58:50;;;;;;;23.40;8.10;;;;;;;16.24;40.73;100737.47;105896;1271;25780;-55
2022/04/13 11:01:25;;;;;;;18.30;6.80;;;;;;;16.34;40.80;100737.04;105887;1271;25235;-54
2022/04/13 11:03:57;;;;;;;18.70;7.00;;;;;;;16.43;40.85;100735.23;105841;1271;22530;-51
2022/04/13 11:06:32;;;;;;;20.70;7.80;;;;;;;16.48;40.48;100732.53;105698;1271;23229;-54
2022/04/13 11:09:09;;;;;;;20.20;7.80;;;;;;;16.52;40.66;100728.36;105690;1270;25343;-52
2022/04/13 11:11:43;;;;;;;20.70;8.20;;;;;;;16.56;40.54;100727.81;105783;1271;25415;-54
2022/04/13 11:14:22;;;;;;;19.70;7.90;;;;;;;16.59;39.95;100724.70;105804;1271;25573;-53
2022/04/13 11:17:27;;;;;;;25.10;9.20;;;;;;;16.61;40.16;100719.58;105744;1271;22565;-54
2022/04/13 11:20:22;;;;;;;23.60;9.30;;;;;;;16.66;40.37;100725.89;105842;1271;23214;-53
2022/04/13 11:23:16;;;;;;;22.00;8.80;;;;;;;16.70;40.23;100719.23;105718;1271;22714;-54
2022/04/13 11:25:51;;;;;;;24.00;9.50;;;;;;;16.76;40.23;100717.96;105989;1271;22530;-54
2022/04/13 11:28:31;;;;;;;23.90;8.70;;;;;;;16.81;40.27;100714.42;106029;1271;22576;-55
2022/04/13 11:31:09;;;;;;;24.10;9.40;;;;;;;16.90;39.88;100720.08;105960;1271;24295;-56
2022/04/13 11:33:49;;;;;;;23.00;8.90;;;;;;;16.98;39.41;100716.55;105775;1271;25323;-53
2022/04/13 11:36:23;;;;;;;23.20;9.10;;;;;;;17.06;39.21;100719.58;105894;1271;22563;-54
2022/04/13 11:38:57;;;;;;;22.50;8.50;;;;;;;17.11;39.14;100718.75;105730;1270;22672;-53